Terminal Aerodrome Forecast
Issued by NWS Pocatello, ID

Home | Current Version | Previous Version | Text Only | Print | Product List | Glossary On
Versions: 1 2 3 4 5 6 7 8 9 10 11 12 13 14
000
FTUS45 KPIH 290520
TAFBYI
TAF
KBYI 290520Z 2906/3006 VRB06KT P6SM SKC
     FM291800 26009KT P6SM VCTS SCT070CB
     FM300300 23008KT P6SM FEW070=

USA.gov is the U.S. government's official web portal to all federal, state and local government web resources and services.